Time;durP1;ratioP1;P1;durP2;ratioP2;P2;SDS_P1;SDS_P2;PMS_P1;PMS_P2;Temp;Humidity;BMP_temperature;BMP_pressure;BME280_temperature;BME280_humidity;BME280_pressure;Samples;Min_cycle;Max_cycle;Signal;HPM_P1;HPM_P2
2023/05/05 05:44:16;;;;;;;;;;;;;;;18.21;55.03;97104.91;4230996;27;10372;-78
2023/05/05 05:46:19;;;;;;;;;;;;;;;18.47;54.75;97103.63;4229454;28;5798;-77
2023/05/05 05:48:27;;;;;;;;;;;;;;;18.67;54.56;97105.09;4223738;28;5643;-77
2023/05/05 05:50:30;;;;;;;;;;;;;;;18.80;54.14;97100.31;4228329;28;5743;-76
2023/05/05 05:52:34;;;;;;;;;;;;;;;18.91;54.14;97109.34;4223946;28;5609;-77
2023/05/05 05:54:37;;;;;;;;;;;;;;;19.00;53.90;97115.13;4231732;28;5612;-76
2023/05/05 05:56:40;;;;;;;;;;;;;;;19.12;53.83;97110.53;4230840;28;5752;-77
2023/05/05 05:58:44;;;;;;;;;;;;;;;19.22;53.65;97109.91;4231493;28;5709;-77
2023/05/05 06:00:48;;;;;;;;;;;;;;;19.33;53.62;97111.72;4228960;28;5653;-77
2023/05/05 06:02:51;;;;;;;;;;;;;;;19.40;53.54;97107.03;4227988;28;6382;-77
2023/05/05 06:04:54;;;;;;;;;;;;;;;19.46;53.21;97119.47;4230916;28;5632;-77
2023/05/05 06:06:57;;;;;;;;;;;;;;;19.48;53.33;97114.69;4229085;28;5719;-77
2023/05/05 06:09:00;;;;;;;;;;;;;;;19.53;53.40;97117.47;4213449;28;6310;-77
2023/05/05 06:11:03;;;;;;;;;;;;;;;19.56;53.39;97110.81;4231405;28;5738;-77
2023/05/05 06:13:05;;;;;;;;;;;;;;;19.57;53.28;97113.25;4231563;28;5684;-77
2023/05/05 06:15:09;;;;;;;;;;;;;;;19.61;53.41;97116.28;4229785;28;5628;-77
2023/05/05 06:17:14;;;;;;;;;;;;;;;19.64;53.13;97111.25;4230527;28;5654;-77
2023/05/05 06:19:17;;;;;;;;;;;;;;;19.65;53.23;97118.22;4230624;28;5653;-78
2023/05/05 06:21:20;;;;;;;;;;;;;;;19.70;53.27;97107.56;4230575;28;5633;-77
2023/05/05 06:23:23;;;;;;;;;;;;;;;19.76;53.18;97111.16;4231087;28;5617;-77
2023/05/05 06:25:26;;;;;;;;;;;;;;;19.84;53.24;97115.31;4231351;28;5629;-77
2023/05/05 06:27:29;;;;;;;;;;;;;;;19.91;53.12;97113.28;4229748;28;5804;-78
2023/05/05 06:29:35;;;;;;;;;;;;;;;19.97;52.92;97112.31;4231537;28;5625;-81
2023/05/05 06:31:38;;;;;;;;;;;;;;;20.06;52.76;97108.16;4231442;28;5309;-81
2023/05/05 06:33:42;;;;;;;;;;;;;;;20.13;52.64;97116.03;4230153;28;5609;-81
2023/05/05 06:35:46;;;;;;;;;;;;;;;20.20;52.61;97112.13;4220683;28;5666;-82
2023/05/05 06:37:49;;;;;;;;;;;;;;;20.24;52.42;97115.91;4216611;28;5652;-81
2023/05/05 06:39:52;;;;;;;;;;;;;;;20.32;52.33;97112.00;4230517;28;5628;-82
2023/05/05 06:41:55;;;;;;;;;;;;;;;20.40;52.11;97116.16;4232431;28;5608;-81
2023/05/05 06:43:58;;;;;;;;;;;;;;;20.45;52.16;97109.00;4226809;28;5629;-81
2023/05/05 06:46:01;;;;;;;;;;;;;;;20.52;52.03;97119.56;4216603;28;5698;-81
2023/05/05 06:48:04;;;;;;;;;;;;;;;20.55;52.23;97113.69;4209725;28;6519;-79
2023/05/05 06:50:09;;;;;;;;;;;;;;;20.58;51.88;97113.19;4209138;28;6303;-77
2023/05/05 06:52:12;;;;;;;;;;;;;;;20.60;52.11;97111.06;4219793;28;5676;-74
2023/05/05 06:54:15;;;;;;;;;;;;;;;20.60;51.96;97111.88;4206552;28;5760;-81
2023/05/05 06:56:18;;;;;;;;;;;;;;;20.60;52.16;97111.06;4218389;28;5609;-80
2023/05/05 06:58:24;;;;;;;;;;;;;;;20.57;52.21;97101.63;4213753;28;5628;-79
2023/05/05 07:00:26;;;;;;;;;;;;;;;20.56;52.05;97110.75;4216485;28;5808;-77
2023/05/05 07:02:29;;;;;;;;;;;;;;;20.57;51.94;97117.75;4210927;28;5687;-77
2023/05/05 07:04:32;;;;;;;;;;;;;;;20.59;51.96;97114.81;4218395;28;5671;-78
2023/05/05 07:06:37;;;;;;;;;;;;;;;20.62;51.94;97108.97;4210284;28;5418;-77
2023/05/05 07:08:40;;;;;;;;;;;;;;;20.64;51.66;97102.28;4210788;28;5613;-71
2023/05/05 07:10:43;;;;;;;;;;;;;;;20.68;51.58;97099.91;4217955;28;5604;-78
2023/05/05 07:12:46;;;;;;;;;;;;;;;20.68;51.45;97107.16;4209716;28;6790;-73
2023/05/05 07:14:49;;;;;;;;;;;;;;;20.68;51.55;97099.91;4218785;28;5617;-75
2023/05/05 07:16:53;;;;;;;;;;;;;;;20.64;51.38;97107.66;4218496;28;5624;-73
2023/05/05 07:18:56;;;;;;;;;;;;;;;20.61;51.38;97096.56;4209335;28;5620;-72
2023/05/05 07:21:00;;;;;;;;;;;;;;;20.59;51.21;97104.06;4210179;28;5699;-72
2023/05/05 07:23:05;;;;;;;;;;;;;;;20.57;51.03;97100.81;4218449;28;5852;-77
2023/05/05 07:25:11;;;;;;;;;;;;;;;20.56;50.82;97104.56;4210455;28;5631;-72
2023/05/05 07:27:14;;;;;;;;;;;;;;;20.55;51.00;97092.22;4209260;28;5696;-75
2023/05/05 07:29:17;;;;;;;;;;;;;;;20.55;50.85;97092.22;4215690;28;5628;-72
2023/05/05 07:31:20;;;;;;;;;;;;;;;20.58;50.78;97092.53;4215533;28;5811;-72
2023/05/05 07:33:23;;;;;;;;;;;;;;;20.59;50.77;97086.09;4206309;28;5624;-73
2023/05/05 07:35:26;;;;;;;;;;;;;;;20.60;50.71;97095.75;4215521;28;5617;-74
2023/05/05 07:37:29;;;;;;;;;;;;;;;20.64;50.55;97088.84;4201540;28;5703;-74
2023/05/05 07:39:33;;;;;;;;;;;;;;;20.68;50.38;97082.97;4208750;28;5698;-76
2023/05/05 07:41:37;;;;;;;;;;;;;;;20.69;50.61;97082.72;4207926;28;5731;-76
2023/05/05 07:43:40;;;;;;;;;;;;;;;20.72;50.22;97084.09;4208753;28;5597;-78
2023/05/05 07:45:46;;;;;;;;;;;;;;;20.73;50.39;97078.47;4216628;28;5608;-75
2023/05/05 07:47:49;;;;;;;;;;;;;;;20.74;50.32;97085.47;4207696;28;6272;-77
2023/05/05 07:49:52;;;;;;;;;;;;;;;20.76;50.03;97085.22;4212544;28;5767;-74
2023/05/05 07:51:55;;;;;;;;;;;;;;;20.75;50.00;97087.09;4195343;28;5635;-73
2023/05/05 07:53:58;;;;;;;;;;;;;;;20.76;50.07;97088.72;4211585;28;5609;-75
2023/05/05 07:56:07;;;;;;;;;;;;;;;20.73;49.95;97086.53;4209033;28;5892;-74
2023/05/05 07:58:10;;;;;;;;;;;;;;;20.74;49.88;97084.66;4209839;28;5804;-73
2023/05/05 08:00:14;;;;;;;;;;;;;;;20.74;49.63;97080.09;4211623;28;7830;-75
2023/05/05 08:02:17;;;;;;;;;;;;;;;20.76;49.46;97079.84;4217180;28;5715;-76
2023/05/05 08:04:20;;;;;;;;;;;;;;;20.77;49.47;97079.59;4212726;28;6314;-76
2023/05/05 08:06:24;;;;;;;;;;;;;;;20.79;49.43;97076.66;4212187;28;5814;-74
2023/05/05 08:08:26;;;;;;;;;;;;;;;20.79;49.36;97077.47;4207329;28;5619;-73
2023/05/05 08:10:29;;;;;;;;;;;;;;;20.78;49.42;97078.53;4207764;28;5778;-75
2023/05/05 08:12:36;;;;;;;;;;;;;;;20.77;49.24;97073.41;4210898;28;5644;-76
2023/05/05 08:14:41;;;;;;;;;;;;;;;20.74;49.08;97069.34;4214261;28;5716;-73
2023/05/05 08:16:44;;;;;;;;;;;;;;;20.73;49.01;97078.47;4204857;28;5602;-74
2023/05/05 08:18:47;;;;;;;;;;;;;;;20.70;49.28;97067.41;4213993;28;5759;-76
2023/05/05 08:20:50;;;;;;;;;;;;;;;20.69;49.35;97071.97;4214061;28;5611;-75
2023/05/05 08:22:54;;;;;;;;;;;;;;;20.70;49.03;97073.59;4216149;28;5620;-76
2023/05/05 08:24:56;;;;;;;;;;;;;;;20.69;49.28;97071.97;4204600;28;5597;-77
2023/05/05 08:27:00;;;;;;;;;;;;;;;20.71;49.05;97075.22;4204986;28;5624;-76
2023/05/05 08:29:04;;;;;;;;;;;;;;;20.73;49.10;97066.94;4213181;28;5880;-75
2023/05/05 08:31:07;;;;;;;;;;;;;;;20.72;48.83;97068.78;4210253;28;7724;-76
2023/05/05 08:33:10;;;;;;;;;;;;;;;20.74;49.16;97073.91;4214476;28;5681;-78
2023/05/05 08:35:14;;;;;;;;;;;;;;;20.72;48.88;97071.47;4215724;28;5653;-75
2023/05/05 08:37:17;;;;;;;;;;;;;;;20.72;49.19;97071.47;4212519;28;5629;-74
2023/05/05 08:39:20;;;;;;;;;;;;;;;20.73;49.07;97070.44;4205947;28;5720;-76
2023/05/05 08:41:23;;;;;;;;;;;;;;;20.75;49.02;97070.16;4210674;28;5692;-76
2023/05/05 08:43:26;;;;;;;;;;;;;;;20.74;49.15;97066.66;4224698;28;5606;-75
2023/05/05 08:45:33;;;;;;;;;;;;;;;20.77;48.91;97065.34;4207191;28;5624;-78
2023/05/05 08:47:37;;;;;;;;;;;;;;;20.80;48.79;97065.66;4215132;28;7079;-74
2023/05/05 08:49:44;;;;;;;;;;;;;;;20.82;48.92;97054.66;4199851;28;6318;-74
2023/05/05 08:51:48;;;;;;;;;;;;;;;20.82;49.04;97063.53;4200849;28;5795;-76
2023/05/05 08:53:57;;;;;;;;;;;;;;;20.81;49.15;97059.22;4200778;28;5640;-75
2023/05/05 08:56:02;;;;;;;;;;;;;;;20.84;48.93;97057.91;4200862;28;5616;-74
2023/05/05 08:58:06;;;;;;;;;;;;;;;20.85;49.27;97054.97;4200982;28;5639;-78
2023/05/05 09:00:10;;;;;;;;;;;;;;;20.89;49.14;97047.22;4200757;28;5620;-75
2023/05/05 09:02:16;;;;;;;;;;;;;;;20.88;49.10;97057.16;4201069;28;5714;-75
2023/05/05 09:04:19;;;;;;;;;;;;;;;20.89;48.98;97044.53;4200604;28;5798;-75
2023/05/05 09:06:25;;;;;;;;;;;;;;;20.87;49.29;97042.09;4200813;28;5632;-75
2023/05/05 09:08:29;;;;;;;;;;;;;;;20.87;49.16;97043.97;4200882;28;5639;-75
2023/05/05 09:10:33;;;;;;;;;;;;;;;20.88;49.07;97046.41;4200631;28;5648;-74
2023/05/05 09:12:39;;;;;;;;;;;;;;;20.91;49.26;97043.19;4200559;28;5636;-75
2023/05/05 09:14:42;;;;;;;;;;;;;;;20.96;48.97;97041.66;4200481;28;5671;-77
2023/05/05 09:16:45;;;;;;;;;;;;;;;20.98;48.95;97044.91;4200283;28;5754;-77
2023/05/05 09:18:49;;;;;;;;;;;;;;;20.99;48.96;97041.13;4200467;28;5772;-75
2023/05/05 09:20:52;;;;;;;;;;;;;;;21.03;48.89;97037.69;4201057;28;5623;-76
2023/05/05 09:22:56;;;;;;;;;;;;;;;21.08;48.85;97042.31;4201484;28;5636;-77
2023/05/05 09:24:59;;;;;;;;;;;;;;;21.11;48.78;97047.16;4200802;28;5764;-74
2023/05/05 09:27:21;;;;;;;;;;;;;;;21.12;48.77;97044.22;4200818;28;5623;-74
2023/05/05 09:29:24;;;;;;;;;;;;;;;21.12;48.53;97046.91;4200646;28;5687;-74
2023/05/05 09:31:27;;;;;;;;;;;;;;;21.15;48.51;97048.28;4200462;28;5647;-74
2023/05/05 09:33:31;;;;;;;;;;;;;;;21.16;48.49;97042.63;4200177;28;5632;-74
2023/05/05 09:35:53;;;;;;;;;;;;;;;21.18;48.22;97048.59;4200582;28;6044;-77
2023/05/05 09:37:58;;;;;;;;;;;;;;;21.17;48.06;97036.19;4214842;28;5653;-74
2023/05/05 09:40:01;;;;;;;;;;;;;;;21.21;48.07;97041.91;4217234;28;5748;-74
2023/05/05 09:42:04;;;;;;;;;;;;;;;21.23;47.80;97037.88;4217199;28;5800;-76
2023/05/05 09:44:07;;;;;;;;;;;;;;;21.26;47.92;97033.09;4216890;28;5669;-74
2023/05/05 09:46:10;;;;;;;;;;;;;;;21.29;47.83;97036.06;4217226;28;5657;-74
2023/05/05 09:48:25;;;;;;;;;;;;;;;21.32;47.55;97030.19;4216908;28;5719;-75
2023/05/05 09:50:31;;;;;;;;;;;;;;;21.37;47.54;97024.03;4217047;28;5621;-75
2023/05/05 09:52:36;;;;;;;;;;;;;;;21.39;47.12;97022.72;4217241;28;5712;-74
2023/05/05 09:54:39;;;;;;;;;;;;;;;21.42;47.41;97022.22;4217185;28;5620;-74
2023/05/05 09:56:42;;;;;;;;;;;;;;;21.45;47.13;97021.69;4217426;28;5609;-74
2023/05/05 09:58:45;;;;;;;;;;;;;;;21.51;46.92;97015.28;4216969;28;5766;-76
2023/05/05 10:00:50;;;;;;;;;;;;;;;21.54;46.83;97016.66;4216683;28;5708;-74
2023/05/05 10:03:02;;;;;;;;;;;;;;;21.52;46.58;97013.44;4217048;28;5628;-74
2023/05/05 10:05:11;;;;;;;;;;;;;;;21.56;46.41;97013.72;4216879;28;5684;-75
2023/05/05 10:07:23;;;;;;;;;;;;;;;21.56;46.12;97009.16;4217303;28;5608;-74
2023/05/05 10:09:30;;;;;;;;;;;;;;;21.58;45.88;97006.19;4217348;28;5708;-74
2023/05/05 10:11:34;;;;;;;;;;;;;;;21.61;45.83;96998.41;4217492;28;5624;-75
2023/05/05 10:13:40;;;;;;;;;;;;;;;21.65;45.42;97004.91;4217075;28;5704;-75
2023/05/05 10:15:45;;;;;;;;;;;;;;;21.67;45.51;96994.69;4217312;28;5669;-75
2023/05/05 10:17:50;;;;;;;;;;;;;;;21.70;45.38;97002.25;4217361;28;5666;-74
2023/05/05 10:20:12;;;;;;;;;;;;;;;21.73;45.21;97006.28;4219382;28;5748;-75
2023/05/05 10:22:17;;;;;;;;;;;;;;;21.74;44.65;97002.53;4220437;28;5066;-75
2023/05/05 10:24:34;;;;;;;;;;;;;;;21.75;44.72;97001.47;4220417;28;5689;-74
2023/05/05 10:26:40;;;;;;;;;;;;;;;21.76;44.66;97000.41;4220481;28;5661;-74
2023/05/05 10:28:45;;;;;;;;;;;;;;;21.78;44.30;97003.66;4220396;28;5654;-75
2023/05/05 10:30:52;;;;;;;;;;;;;;;21.77;44.37;97002.84;4220314;28;7144;-74
2023/05/05 10:33:00;;;;;;;;;;;;;;;21.77;43.89;97002.84;4220265;28;5665;-76
2023/05/05 10:35:26;;;;;;;;;;;;;;;21.76;44.13;97000.41;4220070;28;5773;-74
2023/05/05 10:37:29;;;;;;;;;;;;;;;21.74;43.91;96997.94;4220378;28;6269;-76
2023/05/05 10:39:36;;;;;;;;;;;;;;;21.71;43.89;96997.66;4220083;28;5694;-74
2023/05/05 10:41:40;;;;;;;;;;;;;;;21.71;43.54;97003.06;4220136;28;5673;-75
2023/05/05 10:43:43;;;;;;;;;;;;;;;21.71;43.42;96997.66;4219805;28;5669;-75
2023/05/05 10:45:46;;;;;;;;;;;;;;;21.71;43.23;96992.28;4219951;28;5841;-75
2023/05/05 10:47:50;;;;;;;;;;;;;;;21.70;43.38;96993.34;4220029;28;5617;-75
2023/05/05 10:49:58;;;;;;;;;;;;;;;21.70;43.45;97009.50;4219136;28;5731;-75
2023/05/05 10:52:08;;;;;;;;;;;;;;;21.66;43.19;97003.03;4219490;28;5127;-76
2023/05/05 10:54:20;;;;;;;;;;;;;;;21.67;43.08;96996.56;4219506;28;5613;-74
2023/05/05 10:56:31;;;;;;;;;;;;;;;21.67;42.92;96991.19;4219966;28;5608;-75
2023/05/05 10:58:35;;;;;;;;;;;;;;;21.68;42.93;96990.13;4219316;28;5771;-75
2023/05/05 11:00:57;;;;;;;;;;;;;;;21.66;42.96;96987.69;4219063;28;5686;-76
2023/05/05 11:03:20;;;;;;;;;;;;;;;21.67;42.94;96986.63;4218062;28;5621;-76
2023/05/05 11:05:23;;;;;;;;;;;;;;;21.67;42.83;96986.63;4211295;28;5757;-75
2023/05/05 11:07:26;;;;;;;;;;;;;;;21.66;42.93;96984.19;4219660;28;5824;-73
2023/05/05 11:09:30;;;;;;;;;;;;;;;21.66;43.08;96978.81;4219485;28;5801;-74
2023/05/05 11:12:03;;;;;;;;;;;;;;;21.64;42.77;96976.38;4219344;28;5764;-74
2023/05/05 11:14:21;;;;;;;;;;;;;;;21.66;42.96;96968.06;4219810;28;5632;-75
2023/05/05 11:16:46;;;;;;;;;;;;;;;21.65;42.80;96971.81;4219662;28;6330;-75
2023/05/05 11:18:49;;;;;;;;;;;;;;;21.65;42.44;96967.25;4219290;28;5650;-75
2023/05/05 11:21:17;;;;;;;;;;;;;;;21.65;42.57;96967.25;4219463;28;5613;-76
2023/05/05 11:23:21;;;;;;;;;;;;;;;21.66;42.56;96973.44;4211812;28;5697;-75
2023/05/05 11:25:46;;;;;;;;;;;;;;;21.67;42.87;96967.78;4219340;28;5746;-75
2023/05/05 11:28:05;;;;;;;;;;;;;;;21.65;43.07;96967.25;4219542;28;5617;-75
2023/05/05 11:30:11;;;;;;;;;;;;;;;21.65;42.86;96961.06;4219338;28;5658;-75
2023/05/05 11:32:15;;;;;;;;;;;;;;;21.69;42.79;96962.16;4218995;28;5696;-75
2023/05/05 11:34:27;;;;;;;;;;;;;;;21.73;42.57;96950.59;4218917;28;5620;-75
2023/05/05 11:36:40;;;;;;;;;;;;;;;21.77;42.58;96957.09;4219054;28;5750;-75
2023/05/05 11:39:09;;;;;;;;;;;;;;;21.80;42.56;96953.06;4219279;28;5608;-75
2023/05/05 11:41:13;;;;;;;;;;;;;;;21.83;42.48;96957.91;4219128;28;5597;-75
2023/05/05 11:43:20;;;;;;;;;;;;;;;21.83;42.63;96944.47;4218826;28;5621;-76
2023/05/05 11:45:24;;;;;;;;;;;;;;;21.85;42.46;96950.38;4219002;28;5617;-75
2023/05/05 11:47:36;;;;;;;;;;;;;;;21.88;42.18;96949.88;4218672;28;5832;-78
2023/05/05 11:49:39;;;;;;;;;;;;;;;21.89;41.98;96946.13;4218856;28;5764;-75
2023/05/05 11:51:43;;;;;;;;;;;;;;;21.92;42.25;96947.47;4218875;28;5680;-75
2023/05/05 11:53:47;;;;;;;;;;;;;;;21.92;41.98;96945.59;4217602;28;5609;-75
2023/05/05 11:56:05;;;;;;;;;;;;;;;21.93;41.80;96944.50;4218660;28;5681;-74
2023/05/05 11:58:18;;;;;;;;;;;;;;;21.95;41.70;96950.44;4219122;28;5672;-76
2023/05/05 12:00:32;;;;;;;;;;;;;;;21.97;41.78;96942.94;4219053;28;5666;-74
2023/05/05 12:02:35;;;;;;;;;;;;;;;21.97;41.63;96939.41;4218614;28;5657;-78
2023/05/05 12:04:39;;;;;;;;;;;;;;;21.98;42.06;96941.06;4218656;28;5678;-76
2023/05/05 12:06:43;;;;;;;;;;;;;;;21.97;41.74;96932.19;4218600;28;5666;-73
2023/05/05 12:08:46;;;;;;;;;;;;;;;22.00;41.63;96933.53;4218945;28;5681;-74
2023/05/05 12:10:49;;;;;;;;;;;;;;;22.03;41.96;96928.41;4218674;28;5674;-75
2023/05/05 12:12:52;;;;;;;;;;;;;;;22.04;41.63;96934.59;4218426;28;5682;-74
2023/05/05 12:14:57;;;;;;;;;;;;;;;22.06;41.57;96924.41;4218788;28;5841;-74
2023/05/05 12:17:07;;;;;;;;;;;;;;;22.08;41.68;96924.97;4218697;28;5666;-76
2023/05/05 12:19:13;;;;;;;;;;;;;;;22.14;41.45;96920.41;4218330;28;5649;-74
2023/05/05 12:21:16;;;;;;;;;;;;;;;22.21;41.48;96921.81;4218546;28;5770;-74
2023/05/05 12:23:19;;;;;;;;;;;;;;;22.26;40.94;96913.72;4218561;28;5708;-75
2023/05/05 12:25:25;;;;;;;;;;;;;;;22.27;41.29;96922.63;4218396;28;5620;-75
2023/05/05 12:27:28;;;;;;;;;;;;;;;22.30;40.98;96919.38;4218159;28;6216;-75
2023/05/05 12:29:31;;;;;;;;;;;;;;;22.37;41.05;96919.97;4218310;28;5674;-74
2023/05/05 12:31:35;;;;;;;;;;;;;;;22.41;40.58;96914.84;4218442;28;5677;-74
2023/05/05 12:33:41;;;;;;;;;;;;;;;22.43;40.49;96916.22;4216826;28;6341;-75
2023/05/05 12:35:44;;;;;;;;;;;;;;;22.48;40.56;96918.91;4216834;28;5723;-75
2023/05/05 12:37:46;;;;;;;;;;;;;;;22.49;40.64;96917.03;4216941;28;5620;-75
2023/05/05 12:39:50;;;;;;;;;;;;;;;22.50;40.67;96915.94;4218198;28;5613;-74
2023/05/05 12:42:02;;;;;;;;;;;;;;;22.53;40.15;96915.41;4217573;28;5774;-76
2023/05/05 12:44:05;;;;;;;;;;;;;;;22.55;40.50;96910.59;4217851;28;5725;-76
2023/05/05 12:46:10;;;;;;;;;;;;;;;22.55;40.40;96911.38;4217191;28;6054;-75
2023/05/05 12:48:32;;;;;;;;;;;;;;;22.51;40.53;96915.69;4217583;28;5629;-75
2023/05/05 12:50:36;;;;;;;;;;;;;;;22.54;40.49;96908.97;4216990;28;5762;-77
2023/05/05 12:52:43;;;;;;;;;;;;;;;22.57;40.63;96903.03;4215740;28;5733;-76
2023/05/05 12:54:53;;;;;;;;;;;;;;;22.54;40.80;96904.38;4217907;28;5616;-75
2023/05/05 12:56:57;;;;;;;;;;;;;;;22.56;40.89;96902.22;4208651;28;5628;-75
2023/05/05 12:59:00;;;;;;;;;;;;;;;22.56;41.22;96896.84;4207556;28;5695;-74
2023/05/05 13:01:10;;;;;;;;;;;;;;;22.52;41.57;96887.66;4204260;28;6220;-78
2023/05/05 13:03:19;;;;;;;;;;;;;;;22.53;41.65;96886.56;4214624;28;5127;-76
2023/05/05 13:05:32;;;;;;;;;;;;;;;22.53;41.94;96878.50;4214240;28;5703;-76
2023/05/05 13:07:49;;;;;;;;;;;;;;;22.55;41.77;96872.88;4214512;28;5665;-76
2023/05/05 13:09:51;;;;;;;;;;;;;;;22.58;42.20;96861.53;4217935;28;5624;-76
2023/05/05 13:11:55;;;;;;;;;;;;;;;22.58;42.19;96856.97;4210516;28;5625;-73
2023/05/05 13:13:58;;;;;;;;;;;;;;;22.63;42.15;96862.34;4217215;28;5771;-72
2023/05/05 13:16:00;;;;;;;;;;;;;;;22.63;42.24;96861.53;4212783;28;5601;-75
2023/05/05 13:18:04;;;;;;;;;;;;;;;22.62;42.38;96852.66;4212724;28;5838;-77
2023/05/05 13:20:08;;;;;;;;;;;;;;;22.65;42.18;96845.91;4213652;28;5617;-76
2023/05/05 13:22:12;;;;;;;;;;;;;;;22.65;41.81;96849.44;4212689;28;5625;-81
2023/05/05 13:24:16;;;;;;;;;;;;;;;22.63;42.30;96843.47;4204516;28;5774;-76
2023/05/05 13:26:22;;;;;;;;;;;;;;;22.67;42.18;96847.28;4207267;28;5815;-76
2023/05/05 13:28:24;;;;;;;;;;;;;;;22.67;42.21;96843.78;4208061;28;5601;-75
2023/05/05 13:30:27;;;;;;;;;;;;;;;22.63;41.93;96840.78;4210228;28;5631;-75
2023/05/05 13:32:31;;;;;;;;;;;;;;;22.63;42.08;96838.09;4204810;28;5695;-78
2023/05/05 13:34:34;;;;;;;;;;;;;;;22.63;41.70;96831.91;4215496;28;5854;-82
2023/05/05 13:36:37;;;;;;;;;;;;;;;22.64;41.75;96833.50;4203619;28;5629;-78
2023/05/05 13:38:40;;;;;;;;;;;;;;;22.66;41.61;96826.81;4203773;28;5843;-79
2023/05/05 13:40:44;;;;;;;;;;;;;;;22.66;41.71;96834.88;4209275;28;5762;-80
2023/05/05 13:42:47;;;;;;;;;;;;;;;22.69;41.37;96830.03;4207893;28;5802;-79
2023/05/05 13:44:50;;;;;;;;;;;;;;;22.70;41.63;96837.03;4204434;28;5621;-79
2023/05/05 13:46:53;;;;;;;;;;;;;;;22.70;41.47;96834.34;4207918;28;5682;-79
2023/05/05 13:48:56;;;;;;;;;;;;;;;22.69;41.38;96824.63;4212190;28;5790;-79
2023/05/05 13:50:58;;;;;;;;;;;;;;;22.74;41.40;96820.03;4216999;28;5668;-79
2023/05/05 13:53:01;;;;;;;;;;;;;;;22.78;41.41;96823.03;4205988;28;5708;-78
2023/05/05 13:55:05;;;;;;;;;;;;;;;22.82;41.49;96813.31;4212825;28;5721;-80
2023/05/05 13:57:11;;;;;;;;;;;;;;;22.89;40.85;96811.19;4215925;28;5758;-80
2023/05/05 13:59:14;;;;;;;;;;;;;;;22.89;40.88;96805.81;4218968;28;5712;-79
2023/05/05 14:01:17;;;;;;;;;;;;;;;22.94;40.64;96811.19;4215409;28;5700;-80
2023/05/05 14:03:19;;;;;;;;;;;;;;;22.98;41.05;96811.44;4217957;28;5799;-79
2023/05/05 14:05:22;;;;;;;;;;;;;;;23.01;40.81;96811.72;4219991;28;5782;-79
2023/05/05 14:07:26;;;;;;;;;;;;;;;23.06;40.47;96806.31;4197059;28;6959;-80
2023/05/05 14:09:29;;;;;;;;;;;;;;;23.10;40.50;96810.06;4211545;28;5835;-81
2023/05/05 14:11:32;;;;;;;;;;;;;;;23.14;40.79;96813.84;4215546;28;5721;-79
2023/05/05 14:13:37;;;;;;;;;;;;;;;23.15;40.30;96812.75;4217672;28;5617;-80
2023/05/05 14:15:40;;;;;;;;;;;;;;;23.16;40.37;96814.38;4209856;28;5128;-79
2023/05/05 14:17:43;;;;;;;;;;;;;;;23.14;40.25;96804.94;4211424;28;6282;-82
2023/05/05 14:19:46;;;;;;;;;;;;;;;23.07;40.63;96810.63;4211070;28;5722;-79
2023/05/05 14:21:49;;;;;;;;;;;;;;;23.04;40.60;96811.16;4214589;28;5775;-78
2023/05/05 14:23:52;;;;;;;;;;;;;;;23.02;40.65;96807.94;4214883;28;5556;-78
2023/05/05 14:25:56;;;;;;;;;;;;;;;22.99;40.46;96803.09;4212153;28;5621;-79
2023/05/05 14:28:02;;;;;;;;;;;;;;;23.02;40.25;96802.53;4210165;28;5707;-80
2023/05/05 14:30:08;;;;;;;;;;;;;;;23.05;40.44;96804.69;4211338;28;5862;-78
2023/05/05 14:32:11;;;;;;;;;;;;;;;23.06;40.64;96802.81;4214183;28;5092;-78
2023/05/05 14:34:14;;;;;;;;;;;;;;;23.05;40.38;96793.09;4215771;28;5745;-76
2023/05/05 14:36:17;;;;;;;;;;;;;;;23.04;40.66;96789.59;4212346;28;5788;-78
2023/05/05 14:38:20;;;;;;;;;;;;;;;23.12;40.08;96789.06;4212165;28;5700;-78
2023/05/05 14:40:23;;;;;;;;;;;;;;;23.17;40.19;96791.72;4213323;28;5680;-78
2023/05/05 14:42:26;;;;;;;;;;;;;;;23.20;40.18;96793.06;4213120;28;5840;-79
2023/05/05 14:44:30;;;;;;;;;;;;;;;23.19;39.83;96794.94;4210291;28;5867;-78
2023/05/05 14:46:34;;;;;;;;;;;;;;;23.19;39.78;96796.84;4215256;28;5899;-79
2023/05/05 14:48:37;;;;;;;;;;;;;;;23.21;40.16;96794.66;4209183;28;5825;-79
2023/05/05 14:50:41;;;;;;;;;;;;;;;23.21;39.87;96800.88;4217206;28;5116;-80
2023/05/05 14:52:44;;;;;;;;;;;;;;;23.25;39.73;96801.16;4216263;28;5625;-78
2023/05/05 14:54:47;;;;;;;;;;;;;;;23.26;39.73;96802.75;4209530;28;5786;-79
2023/05/05 14:56:50;;;;;;;;;;;;;;;23.26;40.14;96802.75;4215757;28;5632;-78
2023/05/05 14:58:53;;;;;;;;;;;;;;;23.33;39.80;96805.16;4197107;28;5698;-80
2023/05/05 15:00:56;;;;;;;;;;;;;;;23.33;40.05;96799.75;4222313;28;5675;-86
2023/05/05 15:03:01;;;;;;;;;;;;;;;23.33;39.68;96797.91;4227379;28;5738;-84
2023/05/05 15:05:04;;;;;;;;;;;;;;;23.33;39.87;96803.28;4215001;28;5708;-81
2023/05/05 15:07:07;;;;;;;;;;;;;;;23.30;39.64;96805.72;4213953;28;5628;-81
2023/05/05 15:09:09;;;;;;;;;;;;;;;23.28;39.84;96797.09;4213923;28;5705;-78
2023/05/05 15:11:12;;;;;;;;;;;;;;;23.28;39.64;96808.69;4209058;28;6730;-77
2023/05/05 15:13:15;;;;;;;;;;;;;;;23.27;39.79;96817.06;4209422;28;5620;-79
2023/05/05 15:15:19;;;;;;;;;;;;;;;23.28;39.33;96814.09;4212106;28;5787;-78
2023/05/05 15:17:21;;;;;;;;;;;;;;;23.29;39.62;96814.88;4210439;28;5765;-80
2023/05/05 15:19:26;;;;;;;;;;;;;;;23.28;39.68;96811.38;4215248;28;5654;-83
2023/05/05 15:21:28;;;;;;;;;;;;;;;23.28;39.39;96810.56;4211932;28;5616;-82
2023/05/05 15:23:31;;;;;;;;;;;;;;;23.26;39.33;96813.56;4209273;28;5973;-82
2023/05/05 15:25:36;;;;;;;;;;;;;;;23.24;39.49;96811.13;4209549;28;5931;-80
2023/05/05 15:27:39;;;;;;;;;;;;;;;23.23;39.53;96814.91;4209689;28;6489;-80
2023/05/05 15:29:42;;;;;;;;;;;;;;;23.20;39.08;96810.03;4211555;28;5684;-78
2023/05/05 15:31:45;;;;;;;;;;;;;;;23.22;39.49;96818.69;4211594;28;5637;-80
2023/05/05 15:33:48;;;;;;;;;;;;;;;23.24;39.38;96815.72;4209568;28;5624;-79
2023/05/05 15:35:52;;;;;;;;;;;;;;;23.23;39.17;96814.09;4205752;28;5695;-77
2023/05/05 15:37:55;;;;;;;;;;;;;;;23.21;38.94;96817.06;4214456;28;5866;-78
2023/05/05 15:39:58;;;;;;;;;;;;;;;23.21;38.95;96816.25;4212875;28;5625;-82
2023/05/05 15:42:02;;;;;;;;;;;;;;;23.16;39.17;96806.28;4220501;28;5768;-81
2023/05/05 15:44:06;;;;;;;;;;;;;;;23.16;39.26;96808.97;4219832;28;5686;-79
2023/05/05 15:46:08;;;;;;;;;;;;;;;23.14;39.55;96805.75;4220545;28;6309;-81
2023/05/05 15:48:11;;;;;;;;;;;;;;;23.12;39.03;96802.53;4221805;28;5712;-83
2023/05/05 15:50:14;;;;;;;;;;;;;;;23.13;39.33;96809.53;4225036;28;5769;-84
2023/05/05 15:52:19;;;;;;;;;;;;;;;23.12;39.37;96810.63;4204617;28;5706;-81
2023/05/05 15:54:21;;;;;;;;;;;;;;;23.13;39.34;96814.94;4212796;28;5779;-84
2023/05/05 15:56:26;;;;;;;;;;;;;;;23.15;39.29;96823.56;4215467;28;5720;-82
2023/05/05 15:58:28;;;;;;;;;;;;;;;23.13;38.90;96824.91;4217997;28;5680;-85
2023/05/05 16:00:31;;;;;;;;;;;;;;;23.14;39.03;96826.53;4224486;28;5741;-82
2023/05/05 16:02:34;;;;;;;;;;;;;;;23.14;39.00;96834.63;4224115;28;5870;-79
2023/05/05 16:04:37;;;;;;;;;;;;;;;23.13;39.03;96824.91;4222943;28;5714;-86
2023/05/05 16:06:39;;;;;;;;;;;;;;;23.12;39.21;96831.38;4217582;28;5838;-78
2023/05/05 16:08:46;;;;;;;;;;;;;;;23.10;39.45;96815.44;4213592;28;5675;-81
2023/05/05 16:10:49;;;;;;;;;;;;;;;23.10;39.43;96834.31;4222874;28;5855;-86
2023/05/05 16:12:52;;;;;;;;;;;;;;;23.10;39.31;96826.25;4216473;28;5123;-80
2023/05/05 16:14:55;;;;;;;;;;;;;;;23.11;38.96;96827.88;4213267;28;5617;-79
2023/05/05 16:16:58;;;;;;;;;;;;;;;23.11;39.03;96827.88;4218292;28;5854;-81
2023/05/05 16:19:03;;;;;;;;;;;;;;;23.11;39.17;96817.09;4215731;28;5629;-81
2023/05/05 16:21:06;;;;;;;;;;;;;;;23.13;39.28;96825.72;4213103;28;5616;-79
2023/05/05 16:23:08;;;;;;;;;;;;;;;23.17;39.02;96825.97;4212385;28;5685;-80
2023/05/05 16:25:13;;;;;;;;;;;;;;;23.19;39.17;96826.50;4220847;28;5661;-81
2023/05/05 16:27:16;;;;;;;;;;;;;;;23.21;39.15;96825.13;4218072;28;6314;-79
2023/05/05 16:29:19;;;;;;;;;;;;;;;23.23;39.51;96827.59;4215581;28;5691;-84
2023/05/05 16:31:21;;;;;;;;;;;;;;;23.22;39.61;96829.47;4220870;28;5806;-81
2023/05/05 16:33:24;;;;;;;;;;;;;;;23.23;39.53;96823.00;4219387;28;5654;-80
2023/05/05 16:35:28;;;;;;;;;;;;;;;23.23;39.92;96828.41;4216386;28;5824;-81
2023/05/05 16:37:31;;;;;;;;;;;;;;;23.25;39.79;96836.22;4213109;28;5605;-82
2023/05/05 16:39:38;;;;;;;;;;;;;;;23.24;39.73;96830.00;4216089;28;5803;-82
2023/05/05 16:41:43;;;;;;;;;;;;;;;23.26;39.48;96828.94;4211763;28;5092;-83
2023/05/05 16:43:46;;;;;;;;;;;;;;;23.26;39.59;96826.22;4212540;28;5632;-80